Aeroporto :
LOGIN :

Iscrizione | Disclaimer

   EN    FR    IT 

 










Sommario :    VFR   VFR Marginale   IFR   IFR Intensivo   IFR Molto Intensivo
Visibilità : 
Base nubi : 
>= 8 km
>= 3000ft
5 / 8 km
1000 / 3000 ft
1500m / 5 km
500 / 1000 ft
800 / 1500m
200 / 500 ft
< 800m
< 200 ft
Simboli :   Temporali  Nebbia  Neve Forte  Precipitazioni Forti  Vento > 20 kt
SIGMETs :   Varie  Temporali  Ghiacco  Turbolenza  Onda orograficha  Ceneri Vulcaniche






- Altitudine del aeroporto : 1 ft


EGCK - Caernarfon

ULTIMO METAR :
  • 290050Z AUTO 09003KT 6000 NCD 04/03 Q1023

METARs OBSOLETI :
  • 290020Z AUTO 08002KT 6000 NCD 04/03 Q1023
  • 282350Z AUTO 06003KT 9999 NCD 04/04 Q1023
  • 282320Z AUTO 07002KT 9000 NCD 04/04 Q1023
  • 282250Z AUTO VRB01KT 9999 NCD 03/03 Q1022
  • 282220Z AUTO VRB01KT 9999 NCD 03/02 Q1022

TAF TAF EGCK
Valido dal 29 a 00 ore il 29 a 09 ore UTC


282255Z 2900/2909 10003KT 9999 FEW004
TEMPO 2900/2909 8000
PROB30
TEMPO 2900/2909 4000 BR



MetMap, La meteo Aeronautica in un colpo d'occhio ! - Copyright ORBIFLY Dicembre 2007 - Disclaimer

ORBIFLY MET'MAP TEAM :

Programmazione e sviluppo : Alexandra Zaïnal
Concezione : Baudouin d'Aumeries
Aiuto per la programmazione : Marc-Olivier Méhu
Supporto tecnico e logistico : Manuel Goepfert
Aiuto per la traduzione : Arnaldo La Scala

Contatto : metmap@orbifly.com




FONTI E CREDITI :

   NOAA